createdAt,value
2023-05-06T00:02:23.354Z,3.03
2023-05-06T00:04:53.947Z,2.85
2023-05-06T00:07:27.065Z,3.33
2023-05-06T00:09:57.396Z,3.03
2023-05-06T00:12:27.841Z,4.38
2023-05-06T00:14:58.315Z,3.45
2023-05-06T00:17:28.822Z,3.90
2023-05-06T00:19:59.353Z,3.83
2023-05-06T00:22:32.309Z,4.18
2023-05-06T00:25:02.675Z,3.78
2023-05-06T00:27:33.053Z,3.75
2023-05-06T00:30:03.389Z,4.00
2023-05-06T00:32:33.928Z,4.20
2023-05-06T00:35:04.263Z,4.20
2023-05-06T00:37:37.430Z,3.83
2023-05-06T00:40:08.223Z,3.47
2023-05-06T00:42:38.544Z,4.82
2023-05-06T00:45:09.733Z,3.92
2023-05-06T00:47:40.661Z,3.75
2023-05-06T00:50:11.848Z,4.18
2023-05-06T00:52:45.051Z,4.30
2023-05-06T00:55:15.655Z,4.05
2023-05-06T00:57:46.763Z,3.97
2023-05-06T01:00:17.515Z,3.67
2023-05-06T01:02:49.104Z,3.97
2023-05-06T01:05:21.115Z,4.28
2023-05-06T01:08:03.825Z,4.78
2023-05-06T01:10:39.303Z,3.92
2023-05-06T01:13:15.213Z,4.90
2023-05-06T01:15:48.500Z,5.18
2023-05-06T01:18:21.072Z,4.53
2023-05-06T01:20:54.793Z,5.30
2023-05-06T01:23:27.859Z,5.22
2023-05-06T01:25:58.425Z,4.63
2023-05-06T01:28:29.592Z,5.25
2023-05-06T01:31:05.797Z,5.28
2023-05-06T01:33:39.226Z,5.25
2023-05-06T01:36:22.939Z,6.22
2023-05-06T01:38:59.637Z,5.30
2023-05-06T01:41:30.890Z,5.93
2023-05-06T01:44:03.411Z,5.53
2023-05-06T01:46:34.154Z,5.88
2023-05-06T01:49:06.096Z,6.13
2023-05-06T01:51:36.630Z,6.78
2023-05-06T01:54:09.589Z,7.05
2023-05-06T01:56:39.871Z,6.30
2023-05-06T01:59:10.204Z,5.97
2023-05-06T02:01:40.573Z,6.88
2023-05-06T02:04:11.026Z,6.50
2023-05-06T02:06:42.190Z,6.45
2023-05-06T02:09:15.157Z,7.13
2023-05-06T02:11:50.026Z,6.72
2023-05-06T02:14:20.484Z,6.32
2023-05-06T02:16:51.454Z,6.55
2023-05-06T02:19:22.001Z,7.13
2023-05-06T02:21:52.292Z,8.10
2023-05-06T02:24:25.262Z,7.45
2023-05-06T02:26:55.695Z,8.18
2023-05-06T02:29:26.297Z,7.47
2023-05-06T02:31:56.692Z,7.85
2023-05-06T02:34:27.038Z,8.05
2023-05-06T02:36:57.691Z,8.18
2023-05-06T02:39:30.664Z,8.13
2023-05-06T02:42:00.962Z,8.60
2023-05-06T02:44:31.507Z,10.30
2023-05-06T02:47:02.323Z,8.48
2023-05-06T02:49:32.644Z,9.40
2023-05-06T02:52:03.056Z,9.15
2023-05-06T02:54:36.125Z,8.52
2023-05-06T02:57:06.454Z,8.45
2023-05-06T02:59:37.157Z,9.88
2023-05-06T03:02:07.522Z,8.48
2023-05-06T03:04:37.892Z,8.32
2023-05-06T03:07:08.391Z,8.20
2023-05-06T03:09:41.462Z,10.13
2023-05-06T03:12:12.404Z,9.63
2023-05-06T03:14:43.159Z,10.93
2023-05-06T03:17:14.856Z,9.65
2023-05-06T03:19:45.180Z,9.75
2023-05-06T03:22:16.630Z,9.18
2023-05-06T03:24:51.512Z,8.80
2023-05-06T03:27:22.483Z,9.65
2023-05-06T03:29:58.693Z,9.55
2023-05-06T03:32:29.298Z,9.35
2023-05-06T03:34:59.639Z,9.02
2023-05-06T03:37:30.774Z,8.77
2023-05-06T03:40:04.633Z,10.32
2023-05-06T03:42:36.050Z,9.43
2023-05-06T03:45:07.390Z,9.95
2023-05-06T03:47:38.458Z,9.68
2023-05-06T03:50:11.754Z,9.10
2023-05-06T03:52:43.257Z,10.13
2023-05-06T03:55:16.456Z,9.68
2023-05-06T03:57:47.334Z,8.85
2023-05-06T04:00:18.346Z,9.48
2023-05-06T04:02:50.718Z,10.05
2023-05-06T04:05:27.048Z,9.50
2023-05-06T04:07:57.352Z,9.13
2023-05-06T04:10:31.190Z,8.75
2023-05-06T04:13:07.721Z,9.45
2023-05-06T04:15:44.371Z,8.35
2023-05-06T04:18:20.381Z,8.50
2023-05-06T04:21:00.237Z,8.88
2023-05-06T04:23:32.218Z,9.55
2023-05-06T04:26:05.649Z,7.82
2023-05-06T04:28:37.465Z,10.00
2023-05-06T04:31:08.757Z,10.27
2023-05-06T04:33:44.958Z,9.65
2023-05-06T04:39:10.532Z,10.25
2023-05-06T04:41:44.723Z,9.63
2023-05-06T04:44:19.620Z,9.93
2023-05-06T04:46:51.305Z,10.43
2023-05-06T04:49:21.700Z,9.80
2023-05-06T04:51:52.164Z,9.82
2023-05-06T04:54:22.738Z,9.00
2023-05-06T04:56:55.928Z,9.98
2023-05-06T04:59:26.832Z,10.50
2023-05-06T05:01:57.665Z,10.63
2023-05-06T05:04:27.926Z,10.65
2023-05-06T05:06:58.840Z,11.70
2023-05-06T05:09:30.129Z,10.98
2023-05-06T05:12:04.414Z,10.32
2023-05-06T05:14:39.434Z,11.60
2023-05-06T05:17:11.217Z,11.68
2023-05-06T05:19:42.923Z,11.23
2023-05-06T05:22:14.479Z,11.30
2023-05-06T05:24:44.815Z,11.13
2023-05-06T05:27:17.903Z,12.50
2023-05-06T05:29:49.218Z,12.80
2023-05-06T05:32:20.339Z,11.45
2023-05-06T05:34:50.807Z,12.07
2023-05-06T05:37:21.978Z,11.65
2023-05-06T05:39:52.284Z,12.68
2023-05-06T05:42:25.290Z,11.98
2023-05-06T05:44:56.261Z,12.50
2023-05-06T05:47:27.944Z,12.82
2023-05-06T05:49:58.628Z,12.43
2023-05-06T05:52:29.195Z,13.38
2023-05-06T05:54:59.770Z,12.82
2023-05-06T05:57:33.072Z,13.77
2023-05-06T06:00:03.627Z,13.38
2023-05-06T06:02:36.984Z,12.55
2023-05-06T06:05:08.056Z,13.07
2023-05-06T06:07:38.425Z,10.77
2023-05-06T06:10:09.494Z,11.75
2023-05-06T06:12:44.263Z,10.98
2023-05-06T06:15:17.156Z,9.95
2023-05-06T06:17:48.894Z,10.73
2023-05-06T06:20:19.573Z,10.63
2023-05-06T06:22:50.015Z,10.55
2023-05-06T06:25:21.596Z,9.35
2023-05-06T06:27:54.535Z,10.95
2023-05-06T06:30:25.381Z,10.85
2023-05-06T06:32:57.135Z,9.85
2023-05-06T06:35:27.504Z,9.27
2023-05-06T06:37:58.103Z,8.57
2023-05-06T06:40:28.365Z,9.02
2023-05-06T06:43:01.516Z,9.30
2023-05-06T06:45:51.929Z,8.10
2023-05-06T06:48:22.616Z,8.30
2023-05-06T06:50:52.861Z,8.68
2023-05-06T06:53:23.523Z,8.65
2023-05-06T06:55:53.779Z,7.82
2023-05-06T06:58:26.654Z,7.65
2023-05-06T07:00:57.068Z,7.07
2023-05-06T07:03:27.439Z,6.82
2023-05-06T07:05:57.784Z,6.85
2023-05-06T07:08:28.121Z,6.88
2023-05-06T07:10:58.390Z,6.93
2023-05-06T07:13:31.273Z,6.28
2023-05-06T07:16:01.701Z,6.65
2023-05-06T07:18:32.053Z,6.63
2023-05-06T07:21:02.680Z,5.68
2023-05-06T07:23:32.962Z,6.47
2023-05-06T07:26:03.274Z,6.05
2023-05-06T07:28:36.126Z,5.10
2023-05-06T07:31:06.465Z,5.22
2023-05-06T07:33:37.057Z,5.97
2023-05-06T07:36:07.573Z,5.20
2023-05-06T07:38:37.821Z,5.43
2023-05-06T07:41:08.280Z,5.30
2023-05-06T07:43:41.208Z,5.18
2023-05-06T07:46:11.690Z,4.68
2023-05-06T07:48:42.149Z,4.47
2023-05-06T07:51:12.545Z,5.20
2023-05-06T07:53:42.939Z,4.65
2023-05-06T07:56:13.409Z,5.28
2023-05-06T07:58:46.343Z,5.93
2023-05-06T08:01:16.719Z,5.88
2023-05-06T08:03:47.433Z,4.78
2023-05-06T08:06:17.802Z,5.45
2023-05-06T08:08:48.271Z,4.63
2023-05-06T08:11:19.443Z,4.47
2023-05-06T08:13:52.429Z,5.65
2023-05-06T08:16:24.591Z,4.88
2023-05-06T08:18:55.721Z,4.60
2023-05-06T08:21:25.980Z,4.50
2023-05-06T08:23:56.239Z,4.88
2023-05-06T08:26:26.709Z,4.88
2023-05-06T08:28:59.762Z,4.50
2023-05-06T08:31:30.378Z,4.20
2023-05-06T08:34:01.760Z,4.72
2023-05-06T08:36:32.363Z,5.07
2023-05-06T08:39:03.044Z,4.43
2023-05-06T08:41:34.037Z,4.47
2023-05-06T08:44:07.005Z,5.18
2023-05-06T08:46:37.497Z,3.88
2023-05-06T08:49:07.834Z,4.72
2023-05-06T08:51:38.711Z,4.53
2023-05-06T08:54:09.504Z,4.40
2023-05-06T08:56:40.259Z,4.35
2023-05-06T08:59:13.947Z,4.40
2023-05-06T09:01:44.506Z,3.38
2023-05-06T09:04:15.137Z,3.05
2023-05-06T09:06:45.494Z,3.97
2023-05-06T09:09:16.050Z,3.58
2023-05-06T09:11:46.353Z,3.47
2023-05-06T09:14:20.024Z,3.55
2023-05-06T09:16:50.947Z,2.83
2023-05-06T09:19:22.121Z,3.50
2023-05-06T09:21:54.207Z,2.50
2023-05-06T09:24:24.577Z,2.70
2023-05-06T09:26:55.562Z,2.83
2023-05-06T09:29:28.602Z,2.90
2023-05-06T09:31:59.369Z,2.53
2023-05-06T09:34:31.139Z,2.30
2023-05-06T09:37:01.443Z,2.65
2023-05-06T09:39:31.745Z,3.20
2023-05-06T09:42:02.787Z,3.47
2023-05-06T09:44:35.773Z,2.40
2023-05-06T09:47:06.343Z,2.10
2023-05-06T09:49:37.317Z,2.10
2023-05-06T09:52:07.798Z,1.90
2023-05-06T09:54:38.360Z,2.35
2023-05-06T09:57:08.866Z,1.60
2023-05-06T09:59:42.044Z,1.45
2023-05-06T10:02:13.154Z,1.60
2023-05-06T10:04:46.319Z,1.20
2023-05-06T10:07:18.569Z,0.80
2023-05-06T10:09:49.266Z,1.80
2023-05-06T10:12:20.316Z,1.63
2023-05-06T10:14:53.329Z,0.90
2023-05-06T10:17:27.101Z,1.10
2023-05-06T10:20:00.603Z,1.25
2023-05-06T10:22:35.865Z,0.75
2023-05-06T10:25:08.352Z,1.30
2023-05-06T10:27:43.488Z,1.38
2023-05-06T10:30:18.535Z,0.88
2023-05-06T10:32:49.370Z,1.00
2023-05-06T10:35:23.992Z,0.73
2023-05-06T10:37:54.984Z,0.65
2023-05-06T10:40:26.287Z,0.75
2023-05-06T10:42:56.740Z,0.88
2023-05-06T10:45:29.684Z,0.90
2023-05-06T10:48:12.975Z,0.82
2023-05-06T10:50:45.644Z,0.80
2023-05-06T10:55:47.439Z,0.90
2023-05-06T10:58:18.986Z,0.60
2023-05-06T11:00:58.356Z,0.50
2023-05-06T11:03:29.051Z,0.70
2023-05-06T11:05:59.633Z,0.63
2023-05-06T11:08:30.129Z,0.50
2023-05-06T11:11:00.576Z,0.63
2023-05-06T11:13:31.670Z,0.68
2023-05-06T11:16:04.788Z,0.75
2023-05-06T11:18:53.260Z,0.52
2023-05-06T11:21:38.647Z,0.80
2023-05-06T11:24:12.563Z,0.90
2023-05-06T11:26:46.614Z,0.70
2023-05-06T11:29:19.093Z,0.52
2023-05-06T11:31:54.131Z,0.80
2023-05-06T11:34:26.305Z,0.52
2023-05-06T11:37:03.042Z,0.60
2023-05-06T11:39:39.763Z,0.55
2023-05-06T11:42:11.908Z,0.45
2023-05-06T11:44:42.722Z,0.60
2023-05-06T11:47:15.790Z,0.55
2023-05-06T11:49:46.784Z,0.57
2023-05-06T11:52:17.107Z,0.65
2023-05-06T11:54:49.652Z,14.18
2023-05-06T11:57:20.624Z,3.53
2023-05-06T11:59:57.226Z,5.40
2023-05-06T12:02:30.428Z,0.85
2023-05-06T12:05:01.252Z,0.90
2023-05-06T12:07:31.746Z,0.73
2023-05-06T12:10:04.392Z,0.80
2023-05-06T12:12:35.137Z,0.90
2023-05-06T12:15:05.909Z,0.85
2023-05-06T12:17:38.820Z,1.08
2023-05-06T12:20:10.557Z,0.60
2023-05-06T12:22:41.974Z,0.52
2023-05-06T12:25:19.361Z,0.80
2023-05-06T12:27:49.850Z,0.50
2023-05-06T12:30:32.135Z,0.50
2023-05-06T12:33:05.810Z,0.43
2023-05-06T12:35:36.488Z,0.57
2023-05-06T12:38:13.981Z,0.40
2023-05-06T12:40:45.380Z,0.40
2023-05-06T12:43:15.762Z,0.40
2023-05-06T12:45:46.685Z,0.70
2023-05-06T12:48:21.259Z,0.38
2023-05-06T12:50:52.120Z,0.40
2023-05-06T12:53:34.170Z,0.30
2023-05-06T12:56:04.610Z,0.20
2023-05-06T12:58:37.739Z,0.55
2023-05-06T13:01:08.386Z,0.20
2023-05-06T13:03:42.917Z,0.20
2023-05-06T13:06:14.955Z,0.20
2023-05-06T13:08:45.327Z,0.35
2023-05-06T13:11:15.656Z,0.17
2023-05-06T13:13:45.949Z,0.30
2023-05-06T13:16:16.486Z,0.13
2023-05-06T13:18:49.424Z,0.32
2023-05-06T13:21:20.234Z,0.35
2023-05-06T13:23:50.742Z,0.20
2023-05-06T13:26:21.303Z,0.10
2023-05-06T13:28:51.279Z,1.90
2023-05-06T13:31:22.157Z,0.60
2023-05-06T13:33:55.108Z,0.52
2023-05-06T13:36:25.802Z,0.75
2023-05-06T13:38:56.629Z,0.10
2023-05-06T13:41:27.659Z,0.10
2023-05-06T13:43:57.694Z,0.20
2023-05-06T13:46:28.096Z,0.30
2023-05-06T13:49:01.489Z,0.43
2023-05-06T13:51:33.723Z,0.40
2023-05-06T13:54:06.690Z,0.10
2023-05-06T13:56:37.455Z,0.10
2023-05-06T13:59:08.330Z,0.25
2023-05-06T14:01:39.301Z,0.10
2023-05-06T14:04:12.508Z,0.13
2023-05-06T14:06:42.954Z,0.20
2023-05-06T14:09:14.617Z,0.10
2023-05-06T14:11:44.901Z,0.30
2023-05-06T14:14:15.643Z,0.00
2023-05-06T14:16:45.831Z,0.05
2023-05-06T14:19:18.727Z,0.22
2023-05-06T14:21:49.080Z,0.10
2023-05-06T14:24:19.381Z,0.10
2023-05-06T14:26:49.720Z,0.05
2023-05-06T14:29:20.015Z,0.10
2023-05-06T14:31:50.040Z,0.10
2023-05-06T14:34:22.941Z,0.03
2023-05-06T14:36:53.576Z,0.05
2023-05-06T14:39:23.870Z,0.35
2023-05-06T14:41:54.121Z,0.20
2023-05-06T14:44:24.652Z,0.20
2023-05-06T14:46:54.984Z,0.10
2023-05-06T14:49:27.861Z,0.15
2023-05-06T14:51:58.122Z,0.10
2023-05-06T14:54:29.497Z,0.17
2023-05-06T14:57:02.991Z,0.00
2023-05-06T14:59:33.298Z,0.28
2023-05-06T15:02:03.680Z,0.30
2023-05-06T15:04:36.668Z,0.10
2023-05-06T15:07:07.413Z,0.10
2023-05-06T15:09:39.673Z,0.20
2023-05-06T15:12:10.309Z,0.13
2023-05-06T15:14:40.617Z,0.10
2023-05-06T15:17:11.031Z,0.00
2023-05-06T15:19:43.889Z,0.38
2023-05-06T15:22:14.337Z,0.95
2023-05-06T15:24:44.616Z,0.00
2023-05-06T15:27:15.350Z,0.35
2023-05-06T15:29:45.622Z,0.10
2023-05-06T15:32:15.880Z,0.10
2023-05-06T15:34:48.765Z,0.00
2023-05-06T15:37:19.514Z,0.43
2023-05-06T15:39:49.941Z,0.45
2023-05-06T15:42:20.197Z,0.50
2023-05-06T15:44:51.624Z,0.50
2023-05-06T15:47:22.155Z,1.40
2023-05-06T15:49:55.306Z,0.10
2023-05-06T15:52:25.771Z,0.50
2023-05-06T15:54:59.421Z,0.28
2023-05-06T15:57:30.426Z,0.80
2023-05-06T16:00:00.757Z,0.35
2023-05-06T16:02:31.105Z,0.20
2023-05-06T16:05:04.294Z,0.50
2023-05-06T16:07:34.717Z,0.10
2023-05-06T16:10:05.687Z,0.10
2023-05-06T16:12:39.030Z,0.20
2023-05-06T16:15:10.177Z,0.20
2023-05-06T16:17:40.861Z,0.20
2023-05-06T16:20:14.231Z,0.20
2023-05-06T16:22:44.655Z,0.38
2023-05-06T16:25:16.042Z,0.13
2023-05-06T16:27:46.463Z,0.30
2023-05-06T16:30:17.089Z,0.10
2023-05-06T16:32:47.631Z,0.10
2023-05-06T16:35:21.047Z,0.20
2023-05-06T16:37:51.614Z,0.17
2023-05-06T16:40:23.072Z,0.10
2023-05-06T16:42:53.366Z,0.10
2023-05-06T16:45:23.710Z,0.28
2023-05-06T16:47:54.042Z,0.10
2023-05-06T16:50:26.971Z,0.10
2023-05-06T16:52:57.294Z,0.10
2023-05-06T16:55:27.935Z,0.10
2023-05-06T16:58:00.857Z,0.10
2023-05-06T17:00:31.986Z,0.20
2023-05-06T17:03:02.346Z,0.28
2023-05-06T17:05:35.337Z,0.30
2023-05-06T17:08:06.888Z,0.30
2023-05-06T17:10:37.377Z,0.47
2023-05-06T17:13:07.743Z,0.75
2023-05-06T17:15:38.040Z,1.23
2023-05-06T17:18:08.649Z,1.00
2023-05-06T17:20:54.405Z,0.88
2023-05-06T17:23:26.587Z,1.10
2023-05-06T17:25:58.877Z,0.95
2023-05-06T17:28:29.334Z,0.52
2023-05-06T17:30:59.707Z,0.50
2023-05-06T17:33:30.031Z,0.60
2023-05-06T17:36:02.932Z,0.30
2023-05-06T17:38:33.349Z,0.28
2023-05-06T17:41:03.627Z,0.22
2023-05-06T17:43:34.192Z,0.40
2023-05-06T17:46:04.689Z,0.20
2023-05-06T17:48:35.544Z,0.30
2023-05-06T17:51:08.216Z,0.40
2023-05-06T17:53:38.858Z,0.20
2023-05-06T17:56:09.243Z,0.30
2023-05-06T17:58:39.604Z,0.20
2023-05-06T18:01:10.298Z,1.25
2023-05-06T18:03:40.703Z,0.75
2023-05-06T18:06:13.842Z,0.15
2023-05-06T18:08:44.612Z,0.30
2023-05-06T18:11:15.018Z,0.30
2023-05-06T18:13:45.415Z,0.22
2023-05-06T18:16:15.708Z,0.20
2023-05-06T18:18:46.105Z,0.52
2023-05-06T18:21:19.014Z,0.40
2023-05-06T18:23:51.430Z,0.32
2023-05-06T18:26:42.701Z,0.30
2023-05-06T18:29:14.278Z,0.50
2023-05-06T18:31:44.921Z,0.40
2023-05-06T18:34:15.459Z,3.42
2023-05-06T18:36:48.515Z,0.63
2023-05-06T18:39:19.362Z,0.70
2023-05-06T18:41:49.631Z,0.60
2023-05-06T18:44:19.934Z,0.40
2023-05-06T18:46:50.294Z,0.60
2023-05-06T18:49:20.581Z,0.40
2023-05-06T18:51:54.239Z,0.50
2023-05-06T18:54:24.643Z,1.20
2023-05-06T18:56:55.027Z,0.40
2023-05-06T18:59:25.414Z,0.60
2023-05-06T19:01:55.450Z,0.65
2023-05-06T19:04:25.803Z,0.60
2023-05-06T19:06:58.494Z,0.60
2023-05-06T19:09:28.800Z,0.50
2023-05-06T19:11:59.179Z,0.75
2023-05-06T19:14:29.591Z,0.80
2023-05-06T19:16:59.995Z,0.45
2023-05-06T19:19:30.537Z,0.40
2023-05-06T19:22:03.169Z,0.50
2023-05-06T19:24:33.690Z,0.70
2023-05-06T19:27:03.796Z,0.82
2023-05-06T19:29:33.832Z,1.15
2023-05-06T19:32:04.199Z,1.45
2023-05-06T19:34:34.320Z,1.73
2023-05-06T19:37:06.977Z,1.67
2023-05-06T19:39:37.382Z,1.45
2023-05-06T19:42:08.710Z,1.83
2023-05-06T19:44:39.027Z,1.80
2023-05-06T19:47:09.363Z,1.60
2023-05-06T19:49:39.739Z,1.85
2023-05-06T19:52:12.370Z,1.98
2023-05-06T19:54:42.397Z,1.60
2023-05-06T19:57:12.724Z,1.95
2023-05-06T19:59:43.682Z,1.95
2023-05-06T20:02:16.573Z,1.90
2023-05-06T20:04:46.640Z,2.00
2023-05-06T20:07:20.988Z,2.13
2023-05-06T20:09:55.420Z,2.28
2023-05-06T20:12:26.508Z,2.72
2023-05-06T20:14:56.647Z,2.33
2023-05-06T20:17:27.242Z,1.92
2023-05-06T20:19:58.661Z,1.98
2023-05-06T20:22:32.470Z,2.10
2023-05-06T20:25:11.034Z,1.40
2023-05-06T20:27:41.278Z,1.60
2023-05-06T20:30:12.822Z,1.90
2023-05-06T20:32:43.722Z,1.70
2023-05-06T20:35:14.020Z,1.70
2023-05-06T20:37:47.114Z,2.22
2023-05-06T20:40:17.682Z,2.10
2023-05-06T20:42:47.974Z,1.92
2023-05-06T20:45:18.393Z,1.98
2023-05-06T20:47:48.806Z,1.95
2023-05-06T20:50:19.323Z,1.70
2023-05-06T20:52:52.083Z,2.03
2023-05-06T20:55:23.534Z,1.58
2023-05-06T20:57:53.996Z,1.65
2023-05-06T21:00:24.881Z,1.48
2023-05-06T21:02:55.044Z,1.52
2023-05-06T21:05:25.232Z,1.00
2023-05-06T21:07:57.839Z,1.45
2023-05-06T21:10:27.851Z,0.80
2023-05-06T21:12:57.947Z,0.82
2023-05-06T21:15:28.140Z,1.10
2023-05-06T21:17:58.487Z,0.95
2023-05-06T21:20:28.823Z,0.50
2023-05-06T21:23:03.406Z,0.90
2023-05-06T21:25:33.430Z,0.88
2023-05-06T21:28:05.605Z,1.30
2023-05-06T21:30:36.099Z,1.17
2023-05-06T21:33:08.360Z,0.80
2023-05-06T21:35:38.741Z,0.77
2023-05-06T21:38:11.327Z,0.43
2023-05-06T21:40:41.403Z,0.50
2023-05-06T21:43:11.552Z,0.57
2023-05-06T21:45:41.602Z,0.60
2023-05-06T21:48:11.896Z,0.50
2023-05-06T21:50:41.965Z,0.38
2023-05-06T21:53:14.705Z,0.80
2023-05-06T21:55:44.755Z,0.70
2023-05-06T21:58:15.023Z,0.93
2023-05-06T22:00:45.646Z,0.85
2023-05-06T22:03:15.773Z,0.82
2023-05-06T22:05:45.891Z,0.88
2023-05-06T22:08:18.705Z,0.80
2023-05-06T22:10:49.244Z,0.80
2023-05-06T22:13:19.365Z,0.50
2023-05-06T22:15:49.400Z,0.98
2023-05-06T22:18:19.586Z,4.43
2023-05-06T22:20:50.985Z,1.27
2023-05-06T22:23:24.101Z,1.30
2023-05-06T22:25:54.464Z,0.60
2023-05-06T22:28:24.516Z,0.82
2023-05-06T22:30:54.526Z,0.75
2023-05-06T22:33:24.505Z,0.77
2023-05-06T22:35:55.578Z,0.73
2023-05-06T22:38:28.260Z,0.70
2023-05-06T22:40:58.254Z,0.47
2023-05-06T22:43:28.215Z,0.75
2023-05-06T22:45:58.361Z,0.68
2023-05-06T22:48:28.505Z,0.80
2023-05-06T22:50:58.499Z,0.70
2023-05-06T22:53:31.176Z,0.75
2023-05-06T22:56:01.696Z,0.70
2023-05-06T22:58:32.058Z,0.77
2023-05-06T23:01:02.167Z,1.02
2023-05-06T23:03:32.393Z,0.82
2023-05-06T23:06:03.982Z,0.65
2023-05-06T23:08:36.625Z,0.85
2023-05-06T23:11:06.795Z,0.75
2023-05-06T23:13:37.341Z,0.95
2023-05-06T23:16:10.318Z,0.90
2023-05-06T23:18:40.535Z,0.70
2023-05-06T23:21:12.673Z,0.82
2023-05-06T23:23:45.316Z,0.90
2023-05-06T23:26:15.359Z,0.95
2023-05-06T23:28:45.541Z,0.90
2023-05-06T23:31:15.660Z,0.95
2023-05-06T23:33:45.971Z,1.02
2023-05-06T23:36:16.313Z,1.08
2023-05-06T23:38:48.965Z,0.90
2023-05-06T23:41:18.944Z,0.75
2023-05-06T23:43:49.052Z,1.05
2023-05-06T23:46:19.413Z,1.10
2023-05-06T23:48:49.823Z,1.30
2023-05-06T23:51:20.106Z,1.15
2023-05-06T23:53:52.775Z,1.15
2023-05-06T23:56:23.128Z,1.20
2023-05-06T23:58:53.165Z,1.08
